sensor_id;sensor_type;location;lat;lon;timestamp;temperature;humidity
48836;DHT22;62581;47.342;7.908;2023-02-15T00:01:25;1.90;99.90
48836;DHT22;62581;47.342;7.908;2023-02-15T00:03:51;1.90;99.90
48836;DHT22;62581;47.342;7.908;2023-02-15T00:06:20;1.90;99.90
48836;DHT22;62581;47.342;7.908;2023-02-15T00:08:46;1.90;99.90
48836;DHT22;62581;47.342;7.908;2023-02-15T00:11:14;1.90;99.90
48836;DHT22;62581;47.342;7.908;2023-02-15T00:13:41;1.90;99.90
48836;DHT22;62581;47.342;7.908;2023-02-15T00:16:09;2.00;99.90
48836;DHT22;62581;47.342;7.908;2023-02-15T00:18:36;2.00;99.90
48836;DHT22;62581;47.342;7.908;2023-02-15T00:21:03;2.00;99.90
48836;DHT22;62581;47.342;7.908;2023-02-15T00:23:32;2.00;99.90
48836;DHT22;62581;47.342;7.908;2023-02-15T00:26:05;2.00;99.90
48836;DHT22;62581;47.342;7.908;2023-02-15T00:28:32;2.00;99.90
48836;DHT22;62581;47.342;7.908;2023-02-15T00:31:03;2.00;99.90
48836;DHT22;62581;47.342;7.908;2023-02-15T00:33:29;2.00;99.90
48836;DHT22;62581;47.342;7.908;2023-02-15T00:35:57;2.00;99.90
48836;DHT22;62581;47.342;7.908;2023-02-15T00:38:23;1.80;99.90
48836;DHT22;62581;47.342;7.908;2023-02-15T00:40:53;1.80;99.90
48836;DHT22;62581;47.342;7.908;2023-02-15T00:43:20;1.80;99.90
48836;DHT22;62581;47.342;7.908;2023-02-15T00:45:47;1.70;99.90
48836;DHT22;62581;47.342;7.908;2023-02-15T00:48:13;1.70;99.90
48836;DHT22;62581;47.342;7.908;2023-02-15T00:50:40;1.60;99.90
48836;DHT22;62581;47.342;7.908;2023-02-15T00:53:07;1.70;99.90
48836;DHT22;62581;47.342;7.908;2023-02-15T00:55:34;1.70;99.90
48836;DHT22;62581;47.342;7.908;2023-02-15T00:58:02;1.60;99.90
48836;DHT22;62581;47.342;7.908;2023-02-15T01:00:29;1.60;99.90
48836;DHT22;62581;47.342;7.908;2023-02-15T01:02:56;1.50;99.90
48836;DHT22;62581;47.342;7.908;2023-02-15T01:05:22;1.60;99.90
48836;DHT22;62581;47.342;7.908;2023-02-15T01:07:49;1.60;99.90
48836;DHT22;62581;47.342;7.908;2023-02-15T01:10:16;1.60;99.90
48836;DHT22;62581;47.342;7.908;2023-02-15T01:12:43;1.50;99.90
48836;DHT22;62581;47.342;7.908;2023-02-15T01:15:11;1.50;99.90
48836;DHT22;62581;47.342;7.908;2023-02-15T01:17:38;1.60;99.90
48836;DHT22;62581;47.342;7.908;2023-02-15T01:20:05;1.60;99.90
48836;DHT22;62581;47.342;7.908;2023-02-15T01:22:32;1.60;99.90
48836;DHT22;62581;47.342;7.908;2023-02-15T01:24:59;1.60;99.90
48836;DHT22;62581;47.342;7.908;2023-02-15T01:27:26;1.60;99.90
48836;DHT22;62581;47.342;7.908;2023-02-15T01:29:55;1.60;99.90
48836;DHT22;62581;47.342;7.908;2023-02-15T01:32:23;1.60;99.90
48836;DHT22;62581;47.342;7.908;2023-02-15T01:34:52;1.60;99.90
48836;DHT22;62581;47.342;7.908;2023-02-15T01:37:18;1.70;99.90
48836;DHT22;62581;47.342;7.908;2023-02-15T01:39:45;1.70;99.90
48836;DHT22;62581;47.342;7.908;2023-02-15T01:42:12;1.70;99.90
48836;DHT22;62581;47.342;7.908;2023-02-15T01:44:49;1.80;99.90
48836;DHT22;62581;47.342;7.908;2023-02-15T01:47:18;1.80;99.90
48836;DHT22;62581;47.342;7.908;2023-02-15T01:49:47;1.80;99.90
48836;DHT22;62581;47.342;7.908;2023-02-15T01:52:15;1.80;99.90
48836;DHT22;62581;47.342;7.908;2023-02-15T01:54:44;1.80;99.90
48836;DHT22;62581;47.342;7.908;2023-02-15T01:57:13;1.80;99.90
48836;DHT22;62581;47.342;7.908;2023-02-15T01:59:40;1.80;99.90
48836;DHT22;62581;47.342;7.908;2023-02-15T02:02:09;1.80;99.90
48836;DHT22;62581;47.342;7.908;2023-02-15T02:04:38;1.80;99.90
48836;DHT22;62581;47.342;7.908;2023-02-15T02:07:07;1.90;99.90
48836;DHT22;62581;47.342;7.908;2023-02-15T02:09:35;1.80;99.90
48836;DHT22;62581;47.342;7.908;2023-02-15T02:12:02;1.80;99.90
48836;DHT22;62581;47.342;7.908;2023-02-15T02:14:29;1.70;99.90
48836;DHT22;62581;47.342;7.908;2023-02-15T02:16:57;1.80;99.90
48836;DHT22;62581;47.342;7.908;2023-02-15T02:27:40;1.70;99.90
48836;DHT22;62581;47.342;7.908;2023-02-15T02:30:13;1.70;99.90
48836;DHT22;62581;47.342;7.908;2023-02-15T02:35:30;1.60;99.90
48836;DHT22;62581;47.342;7.908;2023-02-15T02:38:00;1.60;99.90
48836;DHT22;62581;47.342;7.908;2023-02-15T02:40:32;1.60;99.90
48836;DHT22;62581;47.342;7.908;2023-02-15T02:43:03;1.60;99.90
48836;DHT22;62581;47.342;7.908;2023-02-15T02:45:32;1.50;99.90
48836;DHT22;62581;47.342;7.908;2023-02-15T02:48:07;1.40;99.90
48836;DHT22;62581;47.342;7.908;2023-02-15T02:50:38;1.50;99.90
48836;DHT22;62581;47.342;7.908;2023-02-15T02:53:05;1.50;99.90
48836;DHT22;62581;47.342;7.908;2023-02-15T02:55:32;1.50;99.90
48836;DHT22;62581;47.342;7.908;2023-02-15T02:58:02;1.50;99.90
48836;DHT22;62581;47.342;7.908;2023-02-15T03:00:32;1.40;99.90
48836;DHT22;62581;47.342;7.908;2023-02-15T03:03:00;1.50;99.90
48836;DHT22;62581;47.342;7.908;2023-02-15T03:05:30;1.40;99.90
48836;DHT22;62581;47.342;7.908;2023-02-15T03:07:59;1.50;99.90
48836;DHT22;62581;47.342;7.908;2023-02-15T03:10:31;1.50;99.90
48836;DHT22;62581;47.342;7.908;2023-02-15T03:13:02;1.40;99.90
48836;DHT22;62581;47.342;7.908;2023-02-15T03:15:31;1.40;99.90
48836;DHT22;62581;47.342;7.908;2023-02-15T03:18:18;1.50;99.90
48836;DHT22;62581;47.342;7.908;2023-02-15T03:20:46;1.50;99.90
48836;DHT22;62581;47.342;7.908;2023-02-15T03:23:16;1.50;99.90
48836;DHT22;62581;47.342;7.908;2023-02-15T03:25:44;1.50;99.90
48836;DHT22;62581;47.342;7.908;2023-02-15T03:28:13;1.40;99.90
48836;DHT22;62581;47.342;7.908;2023-02-15T03:30:42;1.40;99.90
48836;DHT22;62581;47.342;7.908;2023-02-15T03:33:10;1.30;99.90
48836;DHT22;62581;47.342;7.908;2023-02-15T03:35:39;1.30;99.90
48836;DHT22;62581;47.342;7.908;2023-02-15T03:38:08;1.30;99.90
48836;DHT22;62581;47.342;7.908;2023-02-15T03:40:38;1.30;99.90
48836;DHT22;62581;47.342;7.908;2023-02-15T03:43:25;1.20;99.90
48836;DHT22;62581;47.342;7.908;2023-02-15T03:45:56;1.30;99.90
48836;DHT22;62581;47.342;7.908;2023-02-15T03:48:25;1.30;99.90
48836;DHT22;62581;47.342;7.908;2023-02-15T03:50:52;1.30;99.90
48836;DHT22;62581;47.342;7.908;2023-02-15T03:53:38;1.30;99.90
48836;DHT22;62581;47.342;7.908;2023-02-15T03:56:07;1.40;99.90
48836;DHT22;62581;47.342;7.908;2023-02-15T03:58:33;1.40;99.90
48836;DHT22;62581;47.342;7.908;2023-02-15T04:01:18;1.40;99.90
48836;DHT22;62581;47.342;7.908;2023-02-15T04:04:07;1.30;99.90
48836;DHT22;62581;47.342;7.908;2023-02-15T04:06:35;1.20;99.90
48836;DHT22;62581;47.342;7.908;2023-02-15T04:09:02;1.20;99.90
48836;DHT22;62581;47.342;7.908;2023-02-15T04:11:47;1.20;99.90
48836;DHT22;62581;47.342;7.908;2023-02-15T04:14:14;1.10;99.90
48836;DHT22;62581;47.342;7.908;2023-02-15T04:16:58;1.10;99.90
48836;DHT22;62581;47.342;7.908;2023-02-15T04:19:25;1.10;99.90
48836;DHT22;62581;47.342;7.908;2023-02-15T04:22:09;1.10;99.90
48836;DHT22;62581;47.342;7.908;2023-02-15T04:24:54;1.10;99.90
48836;DHT22;62581;47.342;7.908;2023-02-15T04:27:37;1.10;99.90
48836;DHT22;62581;47.342;7.908;2023-02-15T04:30:04;1.10;99.90
48836;DHT22;62581;47.342;7.908;2023-02-15T04:32:31;1.20;99.90
48836;DHT22;62581;47.342;7.908;2023-02-15T04:34:58;1.10;99.90
48836;DHT22;62581;47.342;7.908;2023-02-15T04:37:25;1.10;99.90
48836;DHT22;62581;47.342;7.908;2023-02-15T04:39:52;1.10;99.90
48836;DHT22;62581;47.342;7.908;2023-02-15T04:42:18;1.10;99.90
48836;DHT22;62581;47.342;7.908;2023-02-15T04:44:47;1.10;99.90
48836;DHT22;62581;47.342;7.908;2023-02-15T04:47:13;1.10;99.90
48836;DHT22;62581;47.342;7.908;2023-02-15T04:49:40;1.10;99.90
48836;DHT22;62581;47.342;7.908;2023-02-15T04:52:07;1.10;99.90
48836;DHT22;62581;47.342;7.908;2023-02-15T04:54:33;1.10;99.90
48836;DHT22;62581;47.342;7.908;2023-02-15T04:57:00;1.00;99.90
48836;DHT22;62581;47.342;7.908;2023-02-15T04:59:27;1.00;99.90
48836;DHT22;62581;47.342;7.908;2023-02-15T05:01:55;1.00;99.90
48836;DHT22;62581;47.342;7.908;2023-02-15T05:04:22;1.00;99.90
48836;DHT22;62581;47.342;7.908;2023-02-15T05:06:49;1.10;99.90
48836;DHT22;62581;47.342;7.908;2023-02-15T05:09:16;1.10;99.90
48836;DHT22;62581;47.342;7.908;2023-02-15T05:11:43;1.10;99.90
48836;DHT22;62581;47.342;7.908;2023-02-15T05:14:09;1.10;99.90
48836;DHT22;62581;47.342;7.908;2023-02-15T05:16:36;1.10;99.90
48836;DHT22;62581;47.342;7.908;2023-02-15T05:19:04;1.00;99.90
48836;DHT22;62581;47.342;7.908;2023-02-15T05:21:31;0.90;99.90
48836;DHT22;62581;47.342;7.908;2023-02-15T05:23:58;0.80;99.90
48836;DHT22;62581;47.342;7.908;2023-02-15T05:26:25;0.90;99.90
48836;DHT22;62581;47.342;7.908;2023-02-15T05:29:09;0.90;99.90
48836;DHT22;62581;47.342;7.908;2023-02-15T05:31:36;0.80;99.90
48836;DHT22;62581;47.342;7.908;2023-02-15T05:34:04;0.80;99.90
48836;DHT22;62581;47.342;7.908;2023-02-15T05:36:31;0.80;99.90
48836;DHT22;62581;47.342;7.908;2023-02-15T05:38:58;0.90;99.90
48836;DHT22;62581;47.342;7.908;2023-02-15T05:41:25;0.90;99.90
48836;DHT22;62581;47.342;7.908;2023-02-15T05:43:54;1.00;99.90
48836;DHT22;62581;47.342;7.908;2023-02-15T05:46:21;1.00;99.90
48836;DHT22;62581;47.342;7.908;2023-02-15T05:48:48;1.10;99.90
48836;DHT22;62581;47.342;7.908;2023-02-15T05:51:16;1.10;99.90
48836;DHT22;62581;47.342;7.908;2023-02-15T05:53:42;1.00;99.90
48836;DHT22;62581;47.342;7.908;2023-02-15T05:56:10;1.00;99.90
48836;DHT22;62581;47.342;7.908;2023-02-15T05:58:38;1.00;99.90
48836;DHT22;62581;47.342;7.908;2023-02-15T06:01:08;1.00;99.90
48836;DHT22;62581;47.342;7.908;2023-02-15T06:03:35;1.00;99.90
48836;DHT22;62581;47.342;7.908;2023-02-15T06:06:02;0.90;99.90
48836;DHT22;62581;47.342;7.908;2023-02-15T06:08:31;0.90;99.90
48836;DHT22;62581;47.342;7.908;2023-02-15T06:10:58;1.00;99.90
48836;DHT22;62581;47.342;7.908;2023-02-15T06:13:24;0.90;99.90
48836;DHT22;62581;47.342;7.908;2023-02-15T06:15:51;0.90;99.90
48836;DHT22;62581;47.342;7.908;2023-02-15T06:18:18;1.00;99.90
48836;DHT22;62581;47.342;7.908;2023-02-15T06:20:45;0.90;99.90
48836;DHT22;62581;47.342;7.908;2023-02-15T06:23:12;0.90;99.90
48836;DHT22;62581;47.342;7.908;2023-02-15T06:25:40;1.00;99.90
48836;DHT22;62581;47.342;7.908;2023-02-15T06:28:07;0.90;99.90
48836;DHT22;62581;47.342;7.908;2023-02-15T06:30:33;0.90;99.90
48836;DHT22;62581;47.342;7.908;2023-02-15T06:33:00;0.80;99.90
48836;DHT22;62581;47.342;7.908;2023-02-15T06:35:27;0.90;99.90
48836;DHT22;62581;47.342;7.908;2023-02-15T06:37:54;0.90;99.90
48836;DHT22;62581;47.342;7.908;2023-02-15T06:40:21;1.00;99.90
48836;DHT22;62581;47.342;7.908;2023-02-15T06:42:49;1.00;99.90
48836;DHT22;62581;47.342;7.908;2023-02-15T06:45:16;1.00;99.90
48836;DHT22;62581;47.342;7.908;2023-02-15T06:47:43;0.90;99.90
48836;DHT22;62581;47.342;7.908;2023-02-15T06:50:10;1.00;99.90
48836;DHT22;62581;47.342;7.908;2023-02-15T06:52:37;0.90;99.90
48836;DHT22;62581;47.342;7.908;2023-02-15T06:55:04;0.90;99.90
48836;DHT22;62581;47.342;7.908;2023-02-15T06:57:31;0.90;99.90
48836;DHT22;62581;47.342;7.908;2023-02-15T07:00:00;0.90;99.90
48836;DHT22;62581;47.342;7.908;2023-02-15T07:02:26;1.00;99.90
48836;DHT22;62581;47.342;7.908;2023-02-15T07:04:53;1.00;99.90
48836;DHT22;62581;47.342;7.908;2023-02-15T07:07:20;1.00;99.90
48836;DHT22;62581;47.342;7.908;2023-02-15T07:09:47;1.00;99.90
48836;DHT22;62581;47.342;7.908;2023-02-15T07:12:13;1.00;99.90
48836;DHT22;62581;47.342;7.908;2023-02-15T07:14:59;1.10;99.90
48836;DHT22;62581;47.342;7.908;2023-02-15T07:17:26;1.00;99.90
48836;DHT22;62581;47.342;7.908;2023-02-15T07:19:53;1.10;99.90
48836;DHT22;62581;47.342;7.908;2023-02-15T07:22:20;1.10;99.90
48836;DHT22;62581;47.342;7.908;2023-02-15T07:24:47;1.10;99.90
48836;DHT22;62581;47.342;7.908;2023-02-15T07:27:15;1.10;99.90
48836;DHT22;62581;47.342;7.908;2023-02-15T07:29:41;1.20;99.90
48836;DHT22;62581;47.342;7.908;2023-02-15T07:32:09;1.10;99.90
48836;DHT22;62581;47.342;7.908;2023-02-15T07:34:36;1.10;99.90
48836;DHT22;62581;47.342;7.908;2023-02-15T07:37:03;1.00;99.90
48836;DHT22;62581;47.342;7.908;2023-02-15T07:39:30;1.00;99.90
48836;DHT22;62581;47.342;7.908;2023-02-15T07:41:57;0.90;99.90
48836;DHT22;62581;47.342;7.908;2023-02-15T07:44:24;0.80;99.90
48836;DHT22;62581;47.342;7.908;2023-02-15T07:46:50;0.70;99.90
48836;DHT22;62581;47.342;7.908;2023-02-15T07:49:18;0.70;99.90
48836;DHT22;62581;47.342;7.908;2023-02-15T07:51:45;0.80;99.90
48836;DHT22;62581;47.342;7.908;2023-02-15T07:54:12;0.80;99.90
48836;DHT22;62581;47.342;7.908;2023-02-15T07:56:39;0.90;99.90
48836;DHT22;62581;47.342;7.908;2023-02-15T07:59:06;0.90;99.90
48836;DHT22;62581;47.342;7.908;2023-02-15T08:01:34;0.80;99.90
48836;DHT22;62581;47.342;7.908;2023-02-15T08:04:04;0.80;99.90
48836;DHT22;62581;47.342;7.908;2023-02-15T08:06:34;0.90;99.90
48836;DHT22;62581;47.342;7.908;2023-02-15T08:09:02;1.00;99.90
48836;DHT22;62581;47.342;7.908;2023-02-15T08:11:30;1.10;99.90
48836;DHT22;62581;47.342;7.908;2023-02-15T08:14:03;1.10;99.90
48836;DHT22;62581;47.342;7.908;2023-02-15T08:16:32;1.20;99.90
48836;DHT22;62581;47.342;7.908;2023-02-15T08:19:04;1.20;99.90
48836;DHT22;62581;47.342;7.908;2023-02-15T08:21:33;1.10;99.90
48836;DHT22;62581;47.342;7.908;2023-02-15T08:24:00;1.10;99.90
48836;DHT22;62581;47.342;7.908;2023-02-15T08:26:27;0.90;99.90
48836;DHT22;62581;47.342;7.908;2023-02-15T08:28:54;0.90;99.90
48836;DHT22;62581;47.342;7.908;2023-02-15T08:31:22;1.10;99.90
48836;DHT22;62581;47.342;7.908;2023-02-15T08:33:49;1.20;99.90
48836;DHT22;62581;47.342;7.908;2023-02-15T08:36:17;1.20;99.90
48836;DHT22;62581;47.342;7.908;2023-02-15T08:38:46;1.20;99.90
48836;DHT22;62581;47.342;7.908;2023-02-15T08:41:14;1.20;99.90
48836;DHT22;62581;47.342;7.908;2023-02-15T08:43:41;1.30;99.90
48836;DHT22;62581;47.342;7.908;2023-02-15T08:46:09;1.40;99.90
48836;DHT22;62581;47.342;7.908;2023-02-15T08:48:36;1.40;99.90
48836;DHT22;62581;47.342;7.908;2023-02-15T08:51:06;1.40;99.90
48836;DHT22;62581;47.342;7.908;2023-02-15T08:53:36;1.40;99.90
48836;DHT22;62581;47.342;7.908;2023-02-15T08:56:04;1.30;99.90
48836;DHT22;62581;47.342;7.908;2023-02-15T08:58:31;1.30;99.90
48836;DHT22;62581;47.342;7.908;2023-02-15T09:00:58;1.20;99.90
48836;DHT22;62581;47.342;7.908;2023-02-15T09:03:27;1.40;99.90
48836;DHT22;62581;47.342;7.908;2023-02-15T09:05:58;1.50;99.90
48836;DHT22;62581;47.342;7.908;2023-02-15T09:08:25;1.60;99.90
48836;DHT22;62581;47.342;7.908;2023-02-15T09:10:52;1.70;99.90
48836;DHT22;62581;47.342;7.908;2023-02-15T09:13:20;1.90;99.90
48836;DHT22;62581;47.342;7.908;2023-02-15T09:15:47;2.00;99.90
48836;DHT22;62581;47.342;7.908;2023-02-15T09:18:14;2.10;99.90
48836;DHT22;62581;47.342;7.908;2023-02-15T09:20:43;2.10;99.90
48836;DHT22;62581;47.342;7.908;2023-02-15T09:23:09;2.20;99.90
48836;DHT22;62581;47.342;7.908;2023-02-15T09:25:36;2.40;99.90
48836;DHT22;62581;47.342;7.908;2023-02-15T09:28:03;2.40;99.90
48836;DHT22;62581;47.342;7.908;2023-02-15T09:30:32;2.50;99.90
48836;DHT22;62581;47.342;7.908;2023-02-15T09:32:59;2.70;99.90
48836;DHT22;62581;47.342;7.908;2023-02-15T09:35:26;2.90;99.90
48836;DHT22;62581;47.342;7.908;2023-02-15T09:37:53;2.90;99.90
48836;DHT22;62581;47.342;7.908;2023-02-15T09:40:20;2.90;99.90
48836;DHT22;62581;47.342;7.908;2023-02-15T09:42:54;3.00;99.90
48836;DHT22;62581;47.342;7.908;2023-02-15T09:45:32;3.10;99.90
48836;DHT22;62581;47.342;7.908;2023-02-15T09:50:49;2.80;99.90
48836;DHT22;62581;47.342;7.908;2023-02-15T09:53:22;3.10;99.90
48836;DHT22;62581;47.342;7.908;2023-02-15T09:55:54;3.20;99.90
48836;DHT22;62581;47.342;7.908;2023-02-15T09:58:26;3.30;99.90
48836;DHT22;62581;47.342;7.908;2023-02-15T10:01:00;3.00;99.90
48836;DHT22;62581;47.342;7.908;2023-02-15T10:03:37;2.70;99.90
48836;DHT22;62581;47.342;7.908;2023-02-15T10:06:14;2.80;99.90
48836;DHT22;62581;47.342;7.908;2023-02-15T10:11:33;3.10;99.90
48836;DHT22;62581;47.342;7.908;2023-02-15T10:14:11;3.20;99.90
48836;DHT22;62581;47.342;7.908;2023-02-15T10:16:42;3.30;99.90
48836;DHT22;62581;47.342;7.908;2023-02-15T10:19:12;3.50;99.90
48836;DHT22;62581;47.342;7.908;2023-02-15T10:21:46;3.70;99.90
48836;DHT22;62581;47.342;7.908;2023-02-15T10:24:25;3.90;99.90
48836;DHT22;62581;47.342;7.908;2023-02-15T10:26:54;4.00;99.90
48836;DHT22;62581;47.342;7.908;2023-02-15T10:29:27;4.20;99.90
48836;DHT22;62581;47.342;7.908;2023-02-15T10:31:59;4.50;99.90
48836;DHT22;62581;47.342;7.908;2023-02-15T10:34:29;4.70;99.90
48836;DHT22;62581;47.342;7.908;2023-02-15T10:39:47;5.10;99.90
48836;DHT22;62581;47.342;7.908;2023-02-15T10:42:19;5.30;99.90
48836;DHT22;62581;47.342;7.908;2023-02-15T10:44:56;5.30;99.90
48836;DHT22;62581;47.342;7.908;2023-02-15T10:47:33;5.50;99.90
48836;DHT22;62581;47.342;7.908;2023-02-15T10:50:15;5.70;99.90
48836;DHT22;62581;47.342;7.908;2023-02-15T10:52:48;5.90;99.90
48836;DHT22;62581;47.342;7.908;2023-02-15T10:55:22;6.10;99.90
48836;DHT22;62581;47.342;7.908;2023-02-15T10:57:55;6.00;99.90
48836;DHT22;62581;47.342;7.908;2023-02-15T11:00:26;6.00;99.90
48836;DHT22;62581;47.342;7.908;2023-02-15T11:03:02;5.80;99.90
48836;DHT22;62581;47.342;7.908;2023-02-15T11:05:37;5.60;99.90
48836;DHT22;62581;47.342;7.908;2023-02-15T11:08:07;5.40;99.90
48836;DHT22;62581;47.342;7.908;2023-02-15T11:10:35;5.30;99.90
48836;DHT22;62581;47.342;7.908;2023-02-15T11:13:05;5.10;99.90
48836;DHT22;62581;47.342;7.908;2023-02-15T11:15:35;5.10;99.90
48836;DHT22;62581;47.342;7.908;2023-02-15T11:18:05;5.00;99.90
48836;DHT22;62581;47.342;7.908;2023-02-15T11:20:36;4.80;99.90
48836;DHT22;62581;47.342;7.908;2023-02-15T11:23:07;4.80;99.90
48836;DHT22;62581;47.342;7.908;2023-02-15T11:25:36;4.80;99.90
48836;DHT22;62581;47.342;7.908;2023-02-15T11:28:04;4.80;99.90
48836;DHT22;62581;47.342;7.908;2023-02-15T11:30:36;4.90;99.90
48836;DHT22;62581;47.342;7.908;2023-02-15T11:33:12;5.10;99.90
48836;DHT22;62581;47.342;7.908;2023-02-15T11:35:47;5.10;99.90
48836;DHT22;62581;47.342;7.908;2023-02-15T11:38:16;5.20;99.90
48836;DHT22;62581;47.342;7.908;2023-02-15T11:40:46;5.20;99.90
48836;DHT22;62581;47.342;7.908;2023-02-15T11:43:16;5.20;99.90
48836;DHT22;62581;47.342;7.908;2023-02-15T11:45:45;5.30;99.90
48836;DHT22;62581;47.342;7.908;2023-02-15T11:48:14;5.90;99.90
48836;DHT22;62581;47.342;7.908;2023-02-15T11:50:41;7.00;99.90
48836;DHT22;62581;47.342;7.908;2023-02-15T11:53:09;8.30;99.90
48836;DHT22;62581;47.342;7.908;2023-02-15T11:55:38;9.70;99.90
48836;DHT22;62581;47.342;7.908;2023-02-15T11:58:06;10.90;99.90
48836;DHT22;62581;47.342;7.908;2023-02-15T12:00:36;11.80;99.90
48836;DHT22;62581;47.342;7.908;2023-02-15T12:03:09;12.40;99.90
48836;DHT22;62581;47.342;7.908;2023-02-15T12:05:39;12.60;99.90
48836;DHT22;62581;47.342;7.908;2023-02-15T12:08:10;11.60;99.90
48836;DHT22;62581;47.342;7.908;2023-02-15T12:10:40;11.50;99.90
48836;DHT22;62581;47.342;7.908;2023-02-15T12:13:10;12.10;99.90
48836;DHT22;62581;47.342;7.908;2023-02-15T12:15:37;13.30;99.90
48836;DHT22;62581;47.342;7.908;2023-02-15T12:18:04;13.70;99.90
48836;DHT22;62581;47.342;7.908;2023-02-15T12:20:32;14.10;99.90
48836;DHT22;62581;47.342;7.908;2023-02-15T12:23:02;14.80;99.90
48836;DHT22;62581;47.342;7.908;2023-02-15T12:25:32;15.30;99.90
48836;DHT22;62581;47.342;7.908;2023-02-15T12:28:00;15.60;99.90
48836;DHT22;62581;47.342;7.908;2023-02-15T12:30:29;16.20;99.90
48836;DHT22;62581;47.342;7.908;2023-02-15T12:32:57;16.20;99.90
48836;DHT22;62581;47.342;7.908;2023-02-15T12:35:26;16.10;99.90
48836;DHT22;62581;47.342;7.908;2023-02-15T12:37:55;15.90;99.90
48836;DHT22;62581;47.342;7.908;2023-02-15T12:40:24;16.40;99.90
48836;DHT22;62581;47.342;7.908;2023-02-15T12:42:53;17.20;99.90
48836;DHT22;62581;47.342;7.908;2023-02-15T12:45:21;18.00;98.80
48836;DHT22;62581;47.342;7.908;2023-02-15T12:48:01;17.30;97.10
48836;DHT22;62581;47.342;7.908;2023-02-15T12:50:34;17.40;97.70
48836;DHT22;62581;47.342;7.908;2023-02-15T12:53:06;17.30;97.00
48836;DHT22;62581;47.342;7.908;2023-02-15T12:55:34;17.70;96.80
48836;DHT22;62581;47.342;7.908;2023-02-15T12:58:05;17.60;96.60
48836;DHT22;62581;47.342;7.908;2023-02-15T13:00:32;17.20;96.50
48836;DHT22;62581;47.342;7.908;2023-02-15T13:03:00;17.30;96.60
48836;DHT22;62581;47.342;7.908;2023-02-15T13:05:29;17.10;96.50
48836;DHT22;62581;47.342;7.908;2023-02-15T13:07:58;17.40;96.50
48836;DHT22;62581;47.342;7.908;2023-02-15T13:10:26;18.40;95.50
48836;DHT22;62581;47.342;7.908;2023-02-15T13:12:56;19.00;94.70
48836;DHT22;62581;47.342;7.908;2023-02-15T13:15:31;19.30;93.80
48836;DHT22;62581;47.342;7.908;2023-02-15T13:18:00;19.50;93.10
48836;DHT22;62581;47.342;7.908;2023-02-15T13:20:28;19.10;92.70
48836;DHT22;62581;47.342;7.908;2023-02-15T13:22:57;18.80;92.90
48836;DHT22;62581;47.342;7.908;2023-02-15T13:25:25;18.60;94.30
48836;DHT22;62581;47.342;7.908;2023-02-15T13:27:54;18.70;93.80
48836;DHT22;62581;47.342;7.908;2023-02-15T13:30:27;19.30;93.30
48836;DHT22;62581;47.342;7.908;2023-02-15T13:32:57;19.50;92.80
48836;DHT22;62581;47.342;7.908;2023-02-15T13:35:25;20.00;92.30
48836;DHT22;62581;47.342;7.908;2023-02-15T13:38:09;20.00;91.80
48836;DHT22;62581;47.342;7.908;2023-02-15T13:40:42;20.30;90.80
48836;DHT22;62581;47.342;7.908;2023-02-15T13:43:17;20.30;91.10
48836;DHT22;62581;47.342;7.908;2023-02-15T13:45:53;20.70;90.10
48836;DHT22;62581;47.342;7.908;2023-02-15T13:48:24;21.00;89.90
48836;DHT22;62581;47.342;7.908;2023-02-15T13:50:56;20.20;89.50
48836;DHT22;62581;47.342;7.908;2023-02-15T13:56:11;19.50;90.60
48836;DHT22;62581;47.342;7.908;2023-02-15T13:59:01;19.10;91.30
48836;DHT22;62581;47.342;7.908;2023-02-15T14:01:34;19.60;91.00
48836;DHT22;62581;47.342;7.908;2023-02-15T14:04:09;19.80;90.20
48836;DHT22;62581;47.342;7.908;2023-02-15T14:06:46;20.30;88.80
48836;DHT22;62581;47.342;7.908;2023-02-15T14:09:18;20.30;87.50
48836;DHT22;62581;47.342;7.908;2023-02-15T14:11:48;19.60;88.60
48836;DHT22;62581;47.342;7.908;2023-02-15T14:14:26;20.30;87.10
48836;DHT22;62581;47.342;7.908;2023-02-15T14:16:58;20.70;84.90
48836;DHT22;62581;47.342;7.908;2023-02-15T14:19:30;20.10;85.00
48836;DHT22;62581;47.342;7.908;2023-02-15T14:22:02;20.30;86.10
48836;DHT22;62581;47.342;7.908;2023-02-15T14:24:36;20.20;86.20
48836;DHT22;62581;47.342;7.908;2023-02-15T14:27:07;20.40;85.90
48836;DHT22;62581;47.342;7.908;2023-02-15T14:29:43;21.10;84.00
48836;DHT22;62581;47.342;7.908;2023-02-15T14:32:16;21.90;82.90
48836;DHT22;62581;47.342;7.908;2023-02-15T14:34:45;21.60;81.20
48836;DHT22;62581;47.342;7.908;2023-02-15T14:37:13;22.30;81.20
48836;DHT22;62581;47.342;7.908;2023-02-15T14:39:43;22.50;79.30
48836;DHT22;62581;47.342;7.908;2023-02-15T14:42:33;22.70;78.40
48836;DHT22;62581;47.342;7.908;2023-02-15T14:45:01;22.10;78.50
48836;DHT22;62581;47.342;7.908;2023-02-15T14:47:33;21.40;80.80
48836;DHT22;62581;47.342;7.908;2023-02-15T14:55:34;23.00;77.90
48836;DHT22;62581;47.342;7.908;2023-02-15T14:58:01;23.10;75.90
48836;DHT22;62581;47.342;7.908;2023-02-15T15:00:30;23.80;76.20
48836;DHT22;62581;47.342;7.908;2023-02-15T15:02:59;24.10;74.30
48836;DHT22;62581;47.342;7.908;2023-02-15T15:05:29;24.00;73.40
48836;DHT22;62581;47.342;7.908;2023-02-15T15:07:59;24.10;73.70
48836;DHT22;62581;47.342;7.908;2023-02-15T15:10:41;24.30;73.40
48836;DHT22;62581;47.342;7.908;2023-02-15T15:15:53;24.50;71.80
48836;DHT22;62581;47.342;7.908;2023-02-15T15:21:03;24.60;71.00
48836;DHT22;62581;47.342;7.908;2023-02-15T15:23:41;24.50;70.30
48836;DHT22;62581;47.342;7.908;2023-02-15T15:26:22;23.80;71.80
48836;DHT22;62581;47.342;7.908;2023-02-15T15:28:56;23.90;71.00
48836;DHT22;62581;47.342;7.908;2023-02-15T15:31:23;23.80;68.60
48836;DHT22;62581;47.342;7.908;2023-02-15T15:34:13;23.50;70.30
48836;DHT22;62581;47.342;7.908;2023-02-15T15:42:27;22.60;72.80
48836;DHT22;62581;47.342;7.908;2023-02-15T15:47:54;21.30;73.90
48836;DHT22;62581;47.342;7.908;2023-02-15T15:50:24;19.80;78.10
48836;DHT22;62581;47.342;7.908;2023-02-15T15:52:54;18.70;82.40
48836;DHT22;62581;47.342;7.908;2023-02-15T15:55:21;17.80;84.20
48836;DHT22;62581;47.342;7.908;2023-02-15T15:57:51;16.50;88.00
48836;DHT22;62581;47.342;7.908;2023-02-15T16:00:24;16.20;90.50
48836;DHT22;62581;47.342;7.908;2023-02-15T16:02:53;15.80;91.20
48836;DHT22;62581;47.342;7.908;2023-02-15T16:05:20;15.60;92.00
48836;DHT22;62581;47.342;7.908;2023-02-15T16:07:48;15.70;92.30
48836;DHT22;62581;47.342;7.908;2023-02-15T16:10:21;15.80;92.30
48836;DHT22;62581;47.342;7.908;2023-02-15T16:12:50;15.20;93.10
48836;DHT22;62581;47.342;7.908;2023-02-15T16:15:19;14.60;93.60
48836;DHT22;62581;47.342;7.908;2023-02-15T16:17:47;13.90;94.80
48836;DHT22;62581;47.342;7.908;2023-02-15T16:20:15;13.60;95.80
48836;DHT22;62581;47.342;7.908;2023-02-15T16:22:43;13.10;96.90
48836;DHT22;62581;47.342;7.908;2023-02-15T16:25:29;13.00;97.50
48836;DHT22;62581;47.342;7.908;2023-02-15T16:28:05;12.80;97.90
48836;DHT22;62581;47.342;7.908;2023-02-15T16:30:32;12.60;98.80
48836;DHT22;62581;47.342;7.908;2023-02-15T16:33:03;12.30;99.90
48836;DHT22;62581;47.342;7.908;2023-02-15T16:35:31;12.00;99.90
48836;DHT22;62581;47.342;7.908;2023-02-15T16:37:58;11.90;99.90
48836;DHT22;62581;47.342;7.908;2023-02-15T16:40:26;11.70;99.90